createdAt,value
2023-04-15T00:00:55.327Z,71.52
2023-04-15T00:01:55.380Z,82.82
2023-04-15T00:02:55.537Z,86.50
2023-04-15T00:03:55.412Z,81.80
2023-04-15T00:04:55.348Z,83.11
2023-04-15T00:05:55.314Z,72.85
2023-04-15T00:06:55.273Z,60.53
2023-04-15T00:07:55.266Z,47.45
2023-04-15T00:08:55.265Z,56.82
2023-04-15T00:09:55.293Z,64.82
2023-04-15T00:10:55.278Z,27.84
2023-04-15T00:11:55.272Z,27.04
2023-04-15T00:12:55.256Z,42.11
2023-04-15T00:13:55.293Z,27.69
2023-04-15T00:14:55.354Z,40.40
2023-04-15T00:15:55.308Z,48.07
2023-04-15T00:16:55.354Z,47.56
2023-04-15T00:17:55.366Z,46.42
2023-04-15T00:18:55.356Z,40.74
2023-04-15T00:19:55.410Z,38.12
2023-04-15T00:20:55.411Z,32.01
2023-04-15T00:21:55.455Z,25.09
2023-04-15T00:22:55.470Z,45.74
2023-04-15T00:23:55.481Z,33.09
2023-04-15T00:24:55.527Z,36.13
2023-04-15T00:25:55.577Z,37.96
2023-04-15T00:26:55.550Z,59.94
2023-04-15T00:27:55.574Z,59.86
2023-04-15T00:28:55.588Z,63.77
2023-04-15T00:29:55.575Z,59.06
2023-04-15T00:30:55.685Z,54.83
2023-04-15T00:31:55.690Z,52.84
2023-04-15T00:32:55.734Z,48.65
2023-04-15T00:33:55.677Z,47.75
2023-04-15T00:34:55.680Z,40.18
2023-04-15T00:35:55.708Z,57.55
2023-04-15T00:36:55.720Z,49.20
2023-04-15T00:37:55.731Z,42.20
2023-04-15T00:38:55.740Z,45.81
2023-04-15T00:39:55.758Z,44.40
2023-04-15T00:40:55.774Z,42.49
2023-04-15T00:41:55.777Z,46.72
2023-04-15T00:42:55.799Z,50.44
2023-04-15T00:43:55.851Z,45.89
2023-04-15T00:44:55.830Z,47.33
2023-04-15T00:45:55.871Z,54.00
2023-04-15T00:46:55.836Z,66.46
2023-04-15T00:47:55.899Z,66.72
2023-04-15T00:48:55.859Z,58.65
2023-04-15T00:49:55.895Z,57.61
2023-04-15T00:50:55.902Z,51.94
2023-04-15T00:51:55.921Z,51.72
2023-04-15T00:52:55.937Z,48.64
2023-04-15T00:53:55.992Z,34.51
2023-04-15T00:54:55.999Z,25.00
2023-04-15T00:55:56.030Z,40.24
2023-04-15T00:56:56.040Z,47.53
2023-04-15T00:57:56.049Z,64.61
2023-04-15T00:58:56.089Z,75.43
2023-04-15T00:59:56.134Z,68.18
2023-04-15T01:00:56.107Z,72.39
2023-04-15T01:01:56.245Z,59.26
2023-04-15T01:02:56.227Z,50.20
2023-04-15T01:03:56.361Z,55.44
2023-04-15T01:04:56.189Z,60.56
2023-04-15T01:05:56.190Z,42.56
2023-04-15T01:06:56.182Z,33.26
2023-04-15T01:07:56.201Z,27.41
2023-04-15T01:08:56.236Z,30.75
2023-04-15T01:09:56.263Z,41.66
2023-04-15T01:10:56.260Z,39.81
2023-04-15T01:11:56.291Z,35.93
2023-04-15T01:12:56.338Z,46.54
2023-04-15T01:13:56.371Z,26.92
2023-04-15T01:14:56.393Z,30.34
2023-04-15T01:15:56.449Z,42.52
2023-04-15T01:16:56.433Z,43.81
2023-04-15T01:17:56.471Z,43.33
2023-04-15T01:18:56.474Z,48.95
2023-04-15T01:19:56.461Z,49.01
2023-04-15T01:20:56.508Z,37.66
2023-04-15T01:21:56.498Z,28.75
2023-04-15T01:22:56.540Z,25.00
2023-04-15T01:23:56.549Z,29.26
2023-04-15T01:24:56.592Z,40.28
2023-04-15T01:25:56.565Z,43.28
2023-04-15T01:26:56.568Z,43.93
2023-04-15T01:27:56.587Z,49.87
2023-04-15T01:28:56.609Z,44.74
2023-04-15T01:29:56.632Z,46.33
2023-04-15T01:30:56.649Z,47.47
2023-04-15T01:31:56.833Z,25.00
2023-04-15T01:32:56.743Z,26.63
2023-04-15T01:33:56.724Z,27.77
2023-04-15T01:34:56.748Z,39.78
2023-04-15T01:35:56.737Z,49.14
2023-04-15T01:36:56.757Z,38.49
2023-04-15T01:37:56.761Z,41.61
2023-04-15T01:38:56.794Z,49.64
2023-04-15T01:39:56.791Z,58.45
2023-04-15T01:40:56.780Z,51.32
2023-04-15T01:41:56.797Z,49.57
2023-04-15T01:42:56.810Z,49.34
2023-04-15T01:43:56.844Z,52.88
2023-04-15T01:44:56.834Z,39.69
2023-04-15T01:45:56.838Z,27.26
2023-04-15T01:46:56.976Z,27.39
2023-04-15T01:47:56.904Z,33.33
2023-04-15T01:48:56.934Z,38.12
2023-04-15T01:49:56.890Z,33.38
2023-04-15T01:50:56.888Z,36.75
2023-04-15T01:51:56.921Z,44.32
2023-04-15T01:52:56.913Z,33.23
2023-04-15T01:53:56.947Z,45.35
2023-04-15T01:54:56.955Z,26.97
2023-04-15T01:55:56.975Z,28.20
2023-04-15T01:56:57.013Z,34.94
2023-04-15T01:57:57.040Z,24.46
2023-04-15T01:58:57.061Z,35.96
2023-04-15T01:59:57.150Z,13.94
2023-04-15T02:00:57.189Z,25.00
2023-04-15T02:01:57.189Z,57.06
2023-04-15T02:02:57.269Z,77.56
2023-04-15T02:03:57.230Z,82.64
2023-04-15T02:04:57.174Z,91.61
2023-04-15T02:05:57.164Z,84.42
2023-04-15T02:06:57.184Z,85.29
2023-04-15T02:07:57.167Z,79.96
2023-04-15T02:08:57.174Z,78.08
2023-04-15T02:09:57.208Z,76.64
2023-04-15T02:10:57.168Z,72.45
2023-04-15T02:11:57.160Z,69.71
2023-04-15T02:12:57.180Z,76.45
2023-04-15T02:13:57.170Z,84.16
2023-04-15T02:14:57.210Z,81.96
2023-04-15T02:15:57.184Z,81.01
2023-04-15T02:16:57.241Z,79.40
2023-04-15T02:17:57.268Z,73.81
2023-04-15T02:18:57.191Z,82.70
2023-04-15T02:19:57.208Z,67.20
2023-04-15T02:20:57.215Z,77.03
2023-04-15T02:21:57.199Z,77.31
2023-04-15T02:22:57.205Z,80.63
2023-04-15T02:23:57.187Z,85.28
2023-04-15T02:24:57.210Z,69.68
2023-04-15T02:25:57.264Z,75.37
2023-04-15T02:26:57.233Z,74.90
2023-04-15T02:27:57.241Z,76.68
2023-04-15T02:28:57.248Z,73.14
2023-04-15T02:29:57.260Z,61.75
2023-04-15T02:30:57.278Z,45.34
2023-04-15T02:31:57.352Z,58.05
2023-04-15T02:32:57.287Z,66.59
2023-04-15T02:33:57.290Z,69.41
2023-04-15T02:34:57.310Z,62.91
2023-04-15T02:35:57.409Z,62.94
2023-04-15T02:36:57.334Z,64.51
2023-04-15T02:37:57.353Z,49.41
2023-04-15T02:38:57.341Z,43.59
2023-04-15T02:39:57.364Z,41.60
2023-04-15T02:40:57.363Z,36.59
2023-04-15T02:41:57.391Z,27.92
2023-04-15T02:42:57.389Z,33.35
2023-04-15T02:43:57.399Z,25.00
2023-04-15T02:44:57.434Z,26.50
2023-04-15T02:45:57.442Z,35.22
2023-04-15T02:46:57.398Z,44.30
2023-04-15T02:47:57.441Z,56.13
2023-04-15T02:48:57.390Z,72.41
2023-04-15T02:49:57.405Z,50.14
2023-04-15T02:50:57.387Z,50.05
2023-04-15T02:51:57.392Z,37.26
2023-04-15T02:52:57.406Z,34.77
2023-04-15T02:53:57.440Z,18.41
2023-04-15T02:54:57.489Z,21.14
2023-04-15T02:55:57.498Z,29.47
2023-04-15T02:56:57.495Z,56.15
2023-04-15T02:57:57.493Z,80.85
2023-04-15T02:58:57.497Z,56.77
2023-04-15T02:59:57.496Z,83.92
2023-04-15T03:00:57.521Z,91.54
2023-04-15T03:01:57.496Z,68.81
2023-04-15T03:02:57.588Z,69.20
2023-04-15T03:03:57.544Z,62.87
2023-04-15T03:04:57.492Z,84.39
2023-04-15T03:05:57.489Z,74.55
2023-04-15T03:06:57.517Z,69.29
2023-04-15T03:07:57.502Z,71.63
2023-04-15T03:08:57.503Z,80.58
2023-04-15T03:09:57.506Z,79.02
2023-04-15T03:10:57.500Z,86.01
2023-04-15T03:11:57.532Z,80.43
2023-04-15T03:12:57.551Z,57.67
2023-04-15T03:13:57.529Z,53.71
2023-04-15T03:14:57.550Z,41.33
2023-04-15T03:15:57.683Z,63.09
2023-04-15T03:16:57.569Z,67.79
2023-04-15T03:17:57.602Z,79.04
2023-04-15T03:18:57.616Z,58.89
2023-04-15T03:19:57.675Z,61.41
2023-04-15T03:20:57.624Z,72.05
2023-04-15T03:21:57.637Z,63.02
2023-04-15T03:22:57.647Z,58.85
2023-04-15T03:23:57.681Z,75.25
2023-04-15T03:24:57.714Z,68.51
2023-04-15T03:25:57.716Z,80.09
2023-04-15T03:26:57.720Z,75.62
2023-04-15T03:27:57.727Z,67.86
2023-04-15T03:28:57.714Z,51.10
2023-04-15T03:29:57.748Z,46.65
2023-04-15T03:30:57.772Z,30.24
2023-04-15T03:31:57.751Z,62.13
2023-04-15T03:32:57.788Z,58.47
2023-04-15T03:33:57.758Z,46.63
2023-04-15T03:34:57.797Z,57.84
2023-04-15T03:35:57.780Z,55.63
2023-04-15T03:36:57.783Z,63.82
2023-04-15T03:37:57.788Z,75.81
2023-04-15T03:38:57.815Z,84.71
2023-04-15T03:39:57.792Z,68.08
2023-04-15T03:40:57.781Z,72.71
2023-04-15T03:41:57.800Z,65.95
2023-04-15T03:42:57.798Z,46.63
2023-04-15T03:43:57.796Z,57.39
2023-04-15T03:44:57.827Z,54.81
2023-04-15T03:45:58.404Z,56.04
2023-04-15T03:46:57.841Z,69.71
2023-04-15T03:48:07.279Z,70.65
2023-04-15T03:48:58.952Z,38.14
2023-04-15T03:49:57.831Z,57.75
2023-04-15T03:50:57.836Z,58.95
2023-04-15T03:51:57.815Z,65.24
2023-04-15T03:52:57.822Z,74.00
2023-04-15T03:53:57.821Z,76.77
2023-04-15T03:54:57.815Z,90.59
2023-04-15T03:55:57.809Z,79.06
2023-04-15T03:56:57.801Z,70.72
2023-04-15T03:57:57.793Z,66.15
2023-04-15T03:58:57.811Z,52.62
2023-04-15T03:59:57.886Z,46.92
2023-04-15T04:00:57.759Z,48.81
2023-04-15T04:01:57.853Z,39.66
2023-04-15T04:02:57.924Z,46.11
2023-04-15T04:03:57.865Z,38.24
2023-04-15T04:04:57.760Z,45.82
2023-04-15T04:05:57.735Z,33.03
2023-04-15T04:06:57.707Z,35.24
2023-04-15T04:07:57.709Z,27.47
2023-04-15T04:08:57.707Z,44.83
2023-04-15T04:09:57.699Z,28.63
2023-04-15T04:10:57.696Z,17.91
2023-04-15T04:11:57.670Z,26.58
2023-04-15T04:12:57.698Z,32.91
2023-04-15T04:13:57.666Z,30.66
2023-04-15T04:14:57.680Z,45.34
2023-04-15T04:15:57.706Z,63.30
2023-04-15T04:16:57.693Z,64.70
2023-04-15T04:17:57.714Z,84.66
2023-04-15T04:18:57.638Z,86.07
2023-04-15T04:19:57.642Z,54.56
2023-04-15T04:20:57.626Z,49.32
2023-04-15T04:21:57.623Z,48.60
2023-04-15T04:22:57.605Z,38.32
2023-04-15T04:23:57.608Z,50.22
2023-04-15T04:24:57.618Z,32.86
2023-04-15T04:25:57.633Z,26.78
2023-04-15T04:26:57.630Z,28.38
2023-04-15T04:27:57.644Z,37.65
2023-04-15T04:28:57.645Z,43.16
2023-04-15T04:29:57.651Z,55.07
2023-04-15T04:30:57.669Z,49.41
2023-04-15T04:31:57.671Z,63.81
2023-04-15T04:32:57.673Z,64.84
2023-04-15T04:33:57.643Z,73.08
2023-04-15T04:34:57.641Z,90.26
2023-04-15T04:35:57.644Z,75.00
2023-04-15T04:36:57.659Z,48.83
2023-04-15T04:37:57.654Z,73.48
2023-04-15T04:38:57.674Z,53.69
2023-04-15T04:39:57.675Z,43.54
2023-04-15T04:40:57.661Z,67.38
2023-04-15T04:41:57.681Z,96.01
2023-04-15T04:42:57.736Z,78.85
2023-04-15T04:43:57.744Z,55.12
2023-04-15T04:44:57.817Z,34.24
2023-04-15T04:45:57.886Z,64.58
2023-04-15T04:46:57.907Z,65.20
2023-04-15T04:47:58.022Z,44.16
2023-04-15T04:48:58.026Z,24.76
2023-04-15T04:49:58.021Z,33.52
2023-04-15T04:50:58.071Z,60.90
2023-04-15T04:51:58.120Z,42.39
2023-04-15T04:52:58.242Z,37.89
2023-04-15T04:53:58.378Z,66.45
2023-04-15T04:54:58.521Z,73.63
2023-04-15T04:55:58.759Z,72.36
2023-04-15T04:56:58.839Z,59.47
2023-04-15T04:57:59.063Z,53.64
2023-04-15T04:58:59.245Z,60.34
2023-04-15T04:59:59.312Z,62.02
2023-04-15T05:00:59.515Z,55.60
2023-04-15T05:01:59.722Z,50.18
2023-04-15T05:02:59.902Z,37.62
2023-04-15T05:04:00.161Z,25.00
2023-04-15T05:05:00.171Z,34.00
2023-04-15T05:06:00.294Z,58.15
2023-04-15T05:07:00.458Z,39.08
2023-04-15T05:08:00.599Z,29.88
2023-04-15T05:09:01.017Z,40.37
2023-04-15T05:10:00.952Z,30.01
2023-04-15T05:11:01.143Z,25.00
2023-04-15T05:12:01.292Z,38.83
2023-04-15T05:13:01.427Z,68.23
2023-04-15T05:14:01.582Z,84.40
2023-04-15T05:15:01.738Z,72.35
2023-04-15T05:16:01.916Z,85.11
2023-04-15T05:17:02.032Z,76.34
2023-04-15T05:18:02.327Z,87.55
2023-04-15T05:19:02.518Z,110.22
2023-04-15T05:20:02.508Z,114.33
2023-04-15T05:21:02.646Z,104.30
2023-04-15T05:22:02.820Z,121.48
2023-04-15T05:23:03.064Z,124.61
2023-04-15T05:24:03.134Z,129.60
2023-04-15T05:25:03.320Z,140.23
2023-04-15T05:26:03.470Z,120.59
2023-04-15T05:27:03.633Z,123.17
2023-04-15T05:28:03.780Z,139.13
2023-04-15T05:29:04.057Z,131.73
2023-04-15T05:30:04.067Z,139.54
2023-04-15T05:31:04.277Z,160.83
2023-04-15T05:32:04.358Z,154.54
2023-04-15T05:33:04.669Z,155.22
2023-04-15T05:34:04.654Z,167.69
2023-04-15T05:35:04.831Z,159.29
2023-04-15T05:36:05.004Z,168.72
2023-04-15T05:37:05.116Z,176.00
2023-04-15T05:38:05.294Z,174.38
2023-04-15T05:39:05.410Z,178.31
2023-04-15T05:40:05.571Z,196.00
2023-04-15T05:41:05.707Z,180.10
2023-04-15T05:42:05.848Z,180.32
2023-04-15T05:43:06.018Z,182.98
2023-04-15T05:44:06.158Z,173.47
2023-04-15T05:45:06.343Z,191.87
2023-04-15T05:46:06.573Z,178.25
2023-04-15T05:47:06.689Z,193.48
2023-04-15T05:48:06.860Z,191.49
2023-04-15T05:49:07.089Z,186.69
2023-04-15T05:50:07.165Z,179.93
2023-04-15T05:51:07.373Z,196.29
2023-04-15T05:52:07.487Z,193.25
2023-04-15T05:53:07.648Z,197.42
2023-04-15T05:54:07.782Z,194.78
2023-04-15T05:55:07.960Z,198.05
2023-04-15T05:56:08.171Z,201.55
2023-04-15T05:57:08.320Z,204.21
2023-04-15T05:58:08.483Z,194.00
2023-04-15T05:59:08.678Z,199.70
2023-04-15T06:00:08.847Z,200.44
2023-04-15T06:01:09.010Z,202.51
2023-04-15T06:02:09.007Z,194.00
2023-04-15T06:03:09.191Z,204.73
2023-04-15T06:04:09.118Z,197.53
2023-04-15T06:05:09.278Z,194.36
2023-04-15T06:06:09.037Z,189.95
2023-04-15T06:07:09.026Z,199.04
2023-04-15T06:08:09.026Z,194.86
2023-04-15T06:09:09.015Z,192.40
2023-04-15T06:10:09.020Z,200.23
2023-04-15T06:11:09.038Z,183.05
2023-04-15T06:12:09.011Z,177.90
2023-04-15T06:13:08.992Z,188.29
2023-04-15T06:14:08.994Z,182.62
2023-04-15T06:15:08.997Z,182.32
2023-04-15T06:16:09.002Z,191.67
2023-04-15T06:17:08.962Z,186.40
2023-04-15T06:18:08.955Z,200.60
2023-04-15T06:19:08.951Z,193.51
2023-04-15T06:20:08.971Z,195.36
2023-04-15T06:21:08.963Z,192.90
2023-04-15T06:22:08.940Z,193.28
2023-04-15T06:23:08.960Z,193.53
2023-04-15T06:24:08.925Z,205.31
2023-04-15T06:25:08.942Z,210.04
2023-04-15T06:26:08.903Z,212.43
2023-04-15T06:27:08.898Z,221.29
2023-04-15T06:28:08.911Z,216.45
2023-04-15T06:29:08.923Z,218.54
2023-04-15T06:30:08.885Z,227.68
2023-04-15T06:31:08.907Z,243.85
2023-04-15T06:32:08.874Z,226.12
2023-04-15T06:33:08.865Z,215.91
2023-04-15T06:34:08.848Z,227.16
2023-04-15T06:35:08.871Z,236.84
2023-04-15T06:36:08.835Z,233.08
2023-04-15T06:37:08.847Z,225.88
2023-04-15T06:38:08.833Z,243.40
2023-04-15T06:39:08.849Z,236.97
2023-04-15T06:40:08.850Z,242.11
2023-04-15T06:41:08.854Z,243.96
2023-04-15T06:42:08.901Z,233.02
2023-04-15T06:43:08.941Z,239.66
2023-04-15T06:44:08.989Z,248.22
2023-04-15T06:45:09.043Z,244.15
2023-04-15T06:46:09.116Z,234.81
2023-04-15T06:47:09.173Z,236.99
2023-04-15T06:48:09.192Z,236.84
2023-04-15T06:49:09.244Z,239.42
2023-04-15T06:50:09.297Z,227.83
2023-04-15T06:51:09.372Z,230.52
2023-04-15T06:52:09.390Z,232.92
2023-04-15T06:53:09.462Z,228.75
2023-04-15T06:54:09.505Z,235.09
2023-04-15T06:55:09.542Z,234.99
2023-04-15T06:56:09.632Z,226.53
2023-04-15T06:57:09.636Z,227.19
2023-04-15T06:58:09.697Z,240.27
2023-04-15T06:59:09.755Z,229.38
2023-04-15T07:00:09.782Z,231.62
2023-04-15T07:01:09.874Z,225.37
2023-04-15T07:02:09.919Z,235.14
2023-04-15T07:03:09.966Z,228.46
2023-04-15T07:04:10.030Z,228.94
2023-04-15T07:05:10.037Z,236.95
2023-04-15T07:06:10.082Z,242.97
2023-04-15T07:07:10.121Z,240.33
2023-04-15T07:08:10.175Z,243.83
2023-04-15T07:09:10.236Z,239.19
2023-04-15T07:10:10.329Z,227.22
2023-04-15T07:11:10.329Z,220.48
2023-04-15T07:12:10.387Z,207.27
2023-04-15T07:13:10.419Z,201.55
2023-04-15T07:14:10.450Z,202.97
2023-04-15T07:15:10.507Z,202.96
2023-04-15T07:16:10.591Z,201.30
2023-04-15T07:17:10.659Z,212.66
2023-04-15T07:18:10.651Z,214.84
2023-04-15T07:19:10.687Z,228.13
2023-04-15T07:20:10.737Z,206.42
2023-04-15T07:21:10.765Z,215.32
2023-04-15T07:22:10.797Z,218.65
2023-04-15T07:23:10.897Z,217.41
2023-04-15T07:24:10.903Z,226.45
2023-04-15T07:25:10.927Z,227.23
2023-04-15T07:26:10.961Z,224.04
2023-04-15T07:27:11.030Z,220.33
2023-04-15T07:28:11.104Z,228.59
2023-04-15T07:29:11.113Z,225.50
2023-04-15T07:30:11.150Z,234.42
2023-04-15T07:31:11.307Z,233.21
2023-04-15T07:32:11.265Z,231.32
2023-04-15T07:33:11.298Z,233.21
2023-04-15T07:34:11.346Z,234.04
2023-04-15T07:35:11.358Z,224.01
2023-04-15T07:36:11.414Z,231.66
2023-04-15T07:37:11.454Z,226.54
2023-04-15T07:38:11.487Z,237.30
2023-04-15T07:39:11.523Z,228.87
2023-04-15T07:40:11.575Z,233.07
2023-04-15T07:41:11.595Z,223.11
2023-04-15T07:42:11.619Z,234.18
2023-04-15T07:43:11.664Z,235.44
2023-04-15T07:44:11.701Z,223.69
2023-04-15T07:45:11.736Z,224.65
2023-04-15T07:46:11.822Z,250.00
2023-04-15T07:47:11.821Z,247.61
2023-04-15T07:48:11.841Z,245.64
2023-04-15T07:49:11.897Z,250.00
2023-04-15T07:50:11.941Z,245.90
2023-04-15T07:51:11.983Z,245.39
2023-04-15T07:52:12.022Z,242.09
2023-04-15T07:53:12.078Z,240.54
2023-04-15T07:54:12.110Z,239.66
2023-04-15T07:55:12.180Z,233.41
2023-04-15T07:56:12.206Z,244.84
2023-04-15T07:57:12.247Z,247.94
2023-04-15T07:58:12.297Z,248.06
2023-04-15T07:59:12.346Z,248.77
2023-04-15T08:00:12.381Z,245.28
2023-04-15T08:01:12.429Z,250.00
2023-04-15T08:02:12.519Z,245.34
2023-04-15T08:03:12.673Z,244.40
2023-04-15T08:04:12.632Z,246.32
2023-04-15T08:05:12.624Z,243.29
2023-04-15T08:06:12.646Z,245.61
2023-04-15T08:07:12.688Z,244.94
2023-04-15T08:08:12.741Z,242.42
2023-04-15T08:09:12.760Z,236.54
2023-04-15T08:10:12.820Z,239.73
2023-04-15T08:11:12.845Z,239.05
2023-04-15T08:12:12.890Z,232.46
2023-04-15T08:13:12.931Z,228.94
2023-04-15T08:14:12.948Z,226.78
2023-04-15T08:15:12.997Z,227.59
2023-04-15T08:16:13.041Z,224.87
2023-04-15T08:17:13.058Z,217.59
2023-04-15T08:18:13.063Z,199.65
2023-04-15T08:19:13.092Z,201.80
2023-04-15T08:20:13.132Z,194.43
2023-04-15T08:21:13.168Z,191.52
2023-04-15T08:22:18.047Z,190.93
2023-04-15T08:23:14.198Z,190.99
2023-04-15T08:24:13.174Z,191.02
2023-04-15T08:25:13.185Z,189.65
2023-04-15T08:26:13.175Z,191.73
2023-04-15T08:27:13.164Z,191.46
2023-04-15T08:28:13.157Z,189.52
2023-04-15T08:29:13.144Z,188.34
2023-04-15T08:30:13.130Z,184.82
2023-04-15T08:31:13.143Z,184.59
2023-04-15T08:32:13.143Z,177.92
2023-04-15T08:33:13.114Z,178.34
2023-04-15T08:34:13.117Z,180.61
2023-04-15T08:35:13.105Z,179.63
2023-04-15T08:36:13.096Z,176.28
2023-04-15T08:37:13.093Z,165.20
2023-04-15T08:38:13.085Z,163.87
2023-04-15T08:39:13.067Z,167.61
2023-04-15T08:40:13.067Z,162.09
2023-04-15T08:41:13.044Z,160.72
2023-04-15T08:42:13.054Z,155.49
2023-04-15T08:43:13.042Z,154.87
2023-04-15T08:44:13.036Z,152.80
2023-04-15T08:45:13.031Z,148.02
2023-04-15T08:46:13.044Z,149.30
2023-04-15T08:47:13.029Z,151.80
2023-04-15T08:48:13.045Z,146.62
2023-04-15T08:49:13.018Z,146.56
2023-04-15T08:50:13.038Z,155.75
2023-04-15T08:51:13.041Z,159.16
2023-04-15T08:52:13.086Z,157.93
2023-04-15T08:53:13.115Z,157.99
2023-04-15T08:54:13.126Z,157.84
2023-04-15T08:55:13.163Z,159.82
2023-04-15T08:56:13.211Z,164.92
2023-04-15T08:57:13.224Z,166.50
2023-04-15T08:58:13.261Z,162.01
2023-04-15T08:59:13.320Z,160.24
2023-04-15T09:00:13.390Z,165.66
2023-04-15T09:01:13.459Z,167.50
2023-04-15T09:02:13.567Z,162.67
2023-04-15T09:03:13.601Z,161.66
2023-04-15T09:04:13.698Z,161.58
2023-04-15T09:05:13.677Z,163.40
2023-04-15T09:06:13.737Z,164.77
2023-04-15T09:07:13.776Z,156.93
2023-04-15T09:08:13.926Z,160.80
2023-04-15T09:09:13.872Z,165.55
2023-04-15T09:10:13.938Z,163.56
2023-04-15T09:11:13.989Z,165.71
2023-04-15T09:12:14.022Z,163.31
2023-04-15T09:13:14.076Z,162.38
2023-04-15T09:14:14.119Z,165.07
2023-04-15T09:15:14.151Z,159.58
2023-04-15T09:16:14.237Z,159.46
2023-04-15T09:17:14.244Z,158.13
2023-04-15T09:18:14.288Z,154.15
2023-04-15T09:19:14.333Z,151.65
2023-04-15T09:20:14.373Z,151.80
2023-04-15T09:21:14.409Z,156.60
2023-04-15T09:22:14.452Z,160.97
2023-04-15T09:23:14.507Z,158.88
2023-04-15T09:24:14.537Z,158.80
2023-04-15T09:25:14.562Z,162.50
2023-04-15T09:26:14.599Z,165.51
2023-04-15T09:27:14.642Z,164.26
2023-04-15T09:28:14.680Z,156.01
2023-04-15T09:29:14.708Z,155.14
2023-04-15T09:30:14.745Z,155.36
2023-04-15T09:31:14.824Z,157.33
2023-04-15T09:32:14.783Z,163.14
2023-04-15T09:33:14.816Z,164.07
2023-04-15T09:34:14.847Z,166.43
2023-04-15T09:35:14.870Z,159.75
2023-04-15T09:36:14.913Z,161.30
2023-04-15T09:37:28.584Z,159.02
2023-04-15T09:38:15.931Z,159.11
2023-04-15T09:39:14.915Z,160.21
2023-04-15T09:40:14.916Z,163.64
2023-04-15T09:41:14.892Z,167.03
2023-04-15T09:42:14.893Z,165.35
2023-04-15T09:43:14.886Z,163.69
2023-04-15T09:44:14.871Z,168.15
2023-04-15T09:45:14.874Z,164.87
2023-04-15T09:46:14.914Z,170.29
2023-04-15T09:47:14.861Z,176.17
2023-04-15T09:48:14.894Z,177.58
2023-04-15T09:49:14.882Z,170.63
2023-04-15T09:50:14.866Z,170.89
2023-04-15T09:51:14.837Z,156.60
2023-04-15T09:52:14.838Z,161.88
2023-04-15T09:53:14.832Z,156.10
2023-04-15T09:54:14.854Z,156.86
2023-04-15T09:55:14.828Z,149.47
2023-04-15T09:56:14.822Z,158.61
2023-04-15T09:57:14.810Z,158.35
2023-04-15T09:58:14.787Z,160.29
2023-04-15T09:59:14.784Z,167.03
2023-04-15T10:00:14.836Z,158.35
2023-04-15T10:01:14.823Z,155.89
2023-04-15T10:02:14.867Z,155.10
2023-04-15T10:03:14.825Z,155.89
2023-04-15T10:04:14.880Z,152.00
2023-04-15T10:05:14.766Z,162.45
2023-04-15T10:06:14.746Z,152.27
2023-04-15T10:07:14.735Z,154.37
2023-04-15T10:08:14.736Z,149.30
2023-04-15T10:09:14.755Z,146.79
2023-04-15T10:10:14.780Z,154.38
2023-04-15T10:11:14.737Z,144.02
2023-04-15T10:12:14.742Z,150.32
2023-04-15T10:13:14.744Z,149.25
2023-04-15T10:14:14.769Z,156.07
2023-04-15T10:15:14.771Z,151.33
2023-04-15T10:16:14.775Z,140.08
2023-04-15T10:17:14.771Z,141.74
2023-04-15T10:18:14.817Z,141.45
2023-04-15T10:19:14.770Z,143.39
2023-04-15T10:20:14.810Z,146.88
2023-04-15T10:21:14.768Z,144.69
2023-04-15T10:22:14.771Z,131.31
2023-04-15T10:23:14.804Z,130.98
2023-04-15T10:24:14.794Z,140.06
2023-04-15T10:25:14.781Z,135.34
2023-04-15T10:26:14.909Z,128.93
2023-04-15T10:27:14.909Z,128.05
2023-04-15T10:28:14.954Z,127.21
2023-04-15T10:29:14.946Z,128.58
2023-04-15T10:30:14.960Z,111.32
2023-04-15T10:31:15.053Z,105.57
2023-04-15T10:32:14.948Z,126.17
2023-04-15T10:33:14.942Z,122.66
2023-04-15T10:34:14.953Z,112.04
2023-04-15T10:35:14.949Z,111.67
2023-04-15T10:36:14.981Z,102.89
2023-04-15T10:37:14.967Z,107.04
2023-04-15T10:38:14.984Z,123.43
2023-04-15T10:39:14.969Z,110.59
2023-04-15T10:40:14.965Z,114.32
2023-04-15T10:41:15.801Z,117.86
2023-04-15T10:42:14.967Z,115.42
2023-04-15T10:43:14.972Z,120.21
2023-04-15T10:44:14.961Z,104.81
2023-04-15T10:45:15.011Z,94.79
2023-04-15T10:46:15.057Z,104.22
2023-04-15T10:47:14.993Z,108.01
2023-04-15T10:48:15.029Z,109.95
2023-04-15T10:49:15.024Z,100.74
2023-04-15T10:50:15.033Z,101.91
2023-04-15T10:51:15.061Z,105.23
2023-04-15T10:52:15.076Z,98.73
2023-04-15T10:53:15.093Z,99.13
2023-04-15T10:54:15.094Z,113.10
2023-04-15T10:55:15.115Z,116.69
2023-04-15T10:56:15.114Z,114.17
2023-04-15T10:57:15.117Z,101.11
2023-04-15T10:58:15.120Z,96.30
2023-04-15T10:59:15.145Z,106.01
2023-04-15T11:00:15.133Z,111.58
2023-04-15T11:01:15.153Z,111.90
2023-04-15T11:02:15.238Z,113.62
2023-04-15T11:03:15.240Z,111.86
2023-04-15T11:04:15.261Z,91.49
2023-04-15T11:05:15.180Z,98.05
2023-04-15T11:06:15.194Z,127.54
2023-04-15T11:07:15.204Z,127.82
2023-04-15T11:08:15.245Z,117.07
2023-04-15T11:09:15.267Z,108.64
2023-04-15T11:10:15.278Z,107.33
2023-04-15T11:11:15.301Z,99.41
2023-04-15T11:12:15.300Z,103.15
2023-04-15T11:13:15.334Z,104.31
2023-04-15T11:14:15.409Z,100.63
2023-04-15T11:15:15.375Z,104.19
2023-04-15T11:16:15.450Z,80.99
2023-04-15T11:17:15.437Z,89.12
2023-04-15T11:18:15.423Z,98.51
2023-04-15T11:19:15.471Z,98.95
2023-04-15T11:20:15.478Z,95.05
2023-04-15T11:21:15.477Z,109.08
2023-04-15T11:22:15.517Z,116.94
2023-04-15T11:23:15.971Z,113.58
2023-04-15T11:24:15.567Z,113.32
2023-04-15T11:25:15.583Z,110.44
2023-04-15T11:26:15.575Z,100.78
2023-04-15T11:27:15.599Z,113.82
2023-04-15T11:28:15.602Z,134.20
2023-04-15T11:29:15.630Z,129.82
2023-04-15T11:30:15.646Z,123.13
2023-04-15T11:31:15.736Z,114.96
2023-04-15T11:32:15.681Z,110.73
2023-04-15T11:33:15.700Z,124.17
2023-04-15T11:34:15.708Z,140.65
2023-04-15T11:35:15.699Z,148.51
2023-04-15T11:36:15.758Z,137.63
2023-04-15T11:37:15.741Z,127.68
2023-04-15T11:38:15.767Z,136.64
2023-04-15T11:39:15.772Z,130.09
2023-04-15T11:40:15.786Z,134.90
2023-04-15T11:41:15.793Z,134.07
2023-04-15T11:42:15.819Z,128.88
2023-04-15T11:43:15.841Z,137.81
2023-04-15T11:44:15.906Z,145.89
2023-04-15T11:45:15.920Z,150.06
2023-04-15T11:46:16.019Z,150.00
2023-04-15T11:47:15.940Z,143.74
2023-04-15T11:48:15.969Z,159.28
2023-04-15T11:49:16.043Z,153.34
2023-04-15T11:50:16.003Z,142.37
2023-04-15T11:51:16.040Z,141.92
2023-04-15T11:52:16.042Z,151.88
2023-04-15T11:53:16.053Z,162.41
2023-04-15T11:54:16.094Z,154.03
2023-04-15T11:55:16.101Z,151.47
2023-04-15T11:56:16.120Z,146.09
2023-04-15T11:57:16.131Z,160.14
2023-04-15T11:58:16.589Z,144.30
2023-04-15T11:59:16.182Z,144.56
2023-04-15T12:00:16.215Z,141.49
2023-04-15T12:01:16.225Z,159.88
2023-04-15T12:02:16.382Z,148.72
2023-04-15T12:03:16.432Z,155.86
2023-04-15T12:04:16.415Z,152.66
2023-04-15T12:05:16.421Z,161.75
2023-04-15T12:06:16.395Z,164.26
2023-04-15T12:07:16.375Z,151.61
2023-04-15T12:08:16.387Z,155.80
2023-04-15T12:09:16.435Z,157.47
2023-04-15T12:10:16.463Z,146.09
2023-04-15T12:11:16.513Z,136.16
2023-04-15T12:12:16.541Z,147.46
2023-04-15T12:13:16.579Z,147.92
2023-04-15T12:14:16.596Z,145.88
2023-04-15T12:15:16.620Z,148.10
2023-04-15T12:16:16.816Z,154.68
2023-04-15T12:17:16.714Z,152.41
2023-04-15T12:18:16.758Z,145.06
2023-04-15T12:19:16.793Z,147.41
2023-04-15T12:20:16.831Z,155.64
2023-04-15T12:21:16.791Z,142.86
2023-04-15T12:22:16.817Z,159.99
2023-04-15T12:23:16.859Z,153.82
2023-04-15T12:24:16.833Z,162.38
2023-04-15T12:25:16.884Z,163.79
2023-04-15T12:26:16.886Z,153.86
2023-04-15T12:27:16.920Z,154.61
2023-04-15T12:28:16.938Z,158.65
2023-04-15T12:29:16.950Z,160.85
2023-04-15T12:30:17.015Z,152.09
2023-04-15T12:31:17.017Z,153.25
2023-04-15T12:32:17.054Z,140.53
2023-04-15T12:33:17.057Z,167.91
2023-04-15T12:34:17.170Z,168.15
2023-04-15T12:35:17.079Z,160.38
2023-04-15T12:36:17.075Z,155.77
2023-04-15T12:37:17.129Z,160.42
2023-04-15T12:38:17.148Z,166.02
2023-04-15T12:39:17.175Z,138.19